sensor_id;sensor_type;location;lat;lon;timestamp;pressure;altitude;pressure_sealevel;temperature;humidity
66524;BME280;53350;52.210;5.160;2023-05-24T00:00:29;102550.00;;;12.29;63.39
66524;BME280;53350;52.210;5.160;2023-05-24T00:02:56;102552.53;;;12.21;63.36
66524;BME280;53350;52.210;5.160;2023-05-24T00:05:23;102552.47;;;12.13;63.62
66524;BME280;53350;52.210;5.160;2023-05-24T00:07:50;102542.91;;;12.05;63.82
66524;BME280;53350;52.210;5.160;2023-05-24T00:10:17;102550.63;;;12.02;63.71
66524;BME280;53350;52.210;5.160;2023-05-24T00:12:44;102540.28;;;11.97;63.99
66524;BME280;53350;52.210;5.160;2023-05-24T00:15:10;102548.00;;;11.95;64.09
66524;BME280;53350;52.210;5.160;2023-05-24T00:17:37;102537.66;;;11.94;64.04
66524;BME280;53350;52.210;5.160;2023-05-24T00:20:07;102541.94;;;11.93;63.97
66524;BME280;53350;52.210;5.160;2023-05-24T00:22:35;102539.31;;;11.92;64.03
66524;BME280;53350;52.210;5.160;2023-05-24T00:25:02;102542.78;;;11.91;64.02
66524;BME280;53350;52.210;5.160;2023-05-24T00:27:30;102544.44;;;11.89;64.06
66524;BME280;53350;52.210;5.160;2023-05-24T00:29:57;102547.03;;;11.87;64.04
66524;BME280;53350;52.210;5.160;2023-05-24T00:32:23;102543.56;;;11.85;64.19
66524;BME280;53350;52.210;5.160;2023-05-24T00:34:49;102547.84;;;11.83;64.08
66524;BME280;53350;52.210;5.160;2023-05-24T00:37:16;102541.81;;;11.81;64.05
66524;BME280;53350;52.210;5.160;2023-05-24T00:39:43;102540.06;;;11.80;64.21
66524;BME280;53350;52.210;5.160;2023-05-24T00:42:09;102541.78;;;11.79;64.33
66524;BME280;53350;52.210;5.160;2023-05-24T00:44:37;102535.72;;;11.77;64.24
66524;BME280;53350;52.210;5.160;2023-05-24T00:47:03;102537.44;;;11.75;64.26
66524;BME280;53350;52.210;5.160;2023-05-24T00:49:30;102530.53;;;11.73;64.33
66524;BME280;53350;52.210;5.160;2023-05-24T00:51:57;102527.06;;;11.69;64.26
66524;BME280;53350;52.210;5.160;2023-05-24T00:54:24;102528.72;;;11.64;64.33
66524;BME280;53350;52.210;5.160;2023-05-24T00:56:51;102527.81;;;11.57;64.37
66524;BME280;53350;52.210;5.160;2023-05-24T00:59:18;102526.00;;;11.50;64.36
66524;BME280;53350;52.210;5.160;2023-05-24T01:01:46;102522.50;;;11.45;64.66
66524;BME280;53350;52.210;5.160;2023-05-24T01:04:13;102526.78;;;11.41;64.83
66524;BME280;53350;52.210;5.160;2023-05-24T01:06:50;102526.72;;;11.38;64.87
66524;BME280;53350;52.210;5.160;2023-05-24T01:09:25;102531.00;;;11.36;64.91
66524;BME280;53350;52.210;5.160;2023-05-24T01:12:01;102531.84;;;11.35;64.96
66524;BME280;53350;52.210;5.160;2023-05-24T01:14:40;102523.22;;;11.33;65.06
66524;BME280;53350;52.210;5.160;2023-05-24T01:17:13;102522.31;;;11.31;64.96
66524;BME280;53350;52.210;5.160;2023-05-24T01:19:53;102524.84;;;11.26;64.98
66524;BME280;53350;52.210;5.160;2023-05-24T01:22:37;102509.28;;;11.19;64.91
66524;BME280;53350;52.210;5.160;2023-05-24T01:25:11;102519.66;;;11.23;65.57
66524;BME280;53350;52.210;5.160;2023-05-24T01:27:42;102529.13;;;11.21;65.66
66524;BME280;53350;52.210;5.160;2023-05-24T01:30:10;102529.94;;;11.20;65.68
66524;BME280;53350;52.210;5.160;2023-05-24T01:32:37;102529.09;;;11.20;65.66
66524;BME280;53350;52.210;5.160;2023-05-24T01:35:04;102526.50;;;11.18;65.70
66524;BME280;53350;52.210;5.160;2023-05-24T01:37:30;102541.97;;;11.17;65.77
66524;BME280;53350;52.210;5.160;2023-05-24T01:39:57;102529.00;;;11.15;65.85
66524;BME280;53350;52.210;5.160;2023-05-24T01:42:26;102536.72;;;11.13;65.73
66524;BME280;53350;52.210;5.160;2023-05-24T01:45:05;102538.44;;;11.11;65.52
66524;BME280;53350;52.210;5.160;2023-05-24T01:47:43;102536.69;;;11.09;65.89
66524;BME280;53350;52.210;5.160;2023-05-24T01:50:16;102529.75;;;11.06;66.11
66524;BME280;53350;52.210;5.160;2023-05-24T01:52:43;102527.16;;;11.05;66.47
66524;BME280;53350;52.210;5.160;2023-05-24T01:55:14;102527.94;;;10.99;66.49
66524;BME280;53350;52.210;5.160;2023-05-24T01:57:43;102526.25;;;10.98;66.58
66524;BME280;53350;52.210;5.160;2023-05-24T02:00:13;102519.31;;;10.95;66.59
66524;BME280;53350;52.210;5.160;2023-05-24T02:02:41;102521.06;;;10.96;66.63
66524;BME280;53350;52.210;5.160;2023-05-24T02:05:08;102517.59;;;10.96;66.41
66524;BME280;53350;52.210;5.160;2023-05-24T02:07:35;102515.03;;;10.96;66.55
66524;BME280;53350;52.210;5.160;2023-05-24T02:10:02;102519.31;;;10.94;66.53
66524;BME280;53350;52.210;5.160;2023-05-24T02:12:29;102512.41;;;10.94;66.38
66524;BME280;53350;52.210;5.160;2023-05-24T02:14:55;102509.00;;;10.94;66.33
66524;BME280;53350;52.210;5.160;2023-05-24T02:17:23;102505.50;;;10.92;66.20
66524;BME280;53350;52.210;5.160;2023-05-24T02:19:51;102514.94;;;10.90;66.50
66524;BME280;53350;52.210;5.160;2023-05-24T02:22:17;102512.34;;;10.88;66.55
66524;BME280;53350;52.210;5.160;2023-05-24T02:24:46;102510.59;;;10.87;66.41
66524;BME280;53350;52.210;5.160;2023-05-24T02:27:13;102516.63;;;10.86;66.30
66524;BME280;53350;52.210;5.160;2023-05-24T02:29:40;102522.63;;;10.85;66.54
66524;BME280;53350;52.210;5.160;2023-05-24T02:32:07;102516.59;;;10.85;66.48
66524;BME280;53350;52.210;5.160;2023-05-24T02:34:34;102524.31;;;10.83;66.48
66524;BME280;53350;52.210;5.160;2023-05-24T02:37:01;102520.00;;;10.81;66.30
66524;BME280;53350;52.210;5.160;2023-05-24T02:39:28;102519.03;;;10.75;66.32
66524;BME280;53350;52.210;5.160;2023-05-24T02:41:55;102514.63;;;10.67;66.55
66524;BME280;53350;52.210;5.160;2023-05-24T02:44:21;102516.25;;;10.61;66.59
66524;BME280;53350;52.210;5.160;2023-05-24T02:46:48;102518.81;;;10.60;66.69
66524;BME280;53350;52.210;5.160;2023-05-24T02:49:14;102517.94;;;10.58;66.40
66524;BME280;53350;52.210;5.160;2023-05-24T02:51:42;102516.19;;;10.57;66.34
66524;BME280;53350;52.210;5.160;2023-05-24T02:54:08;102516.13;;;10.52;66.13
66524;BME280;53350;52.210;5.160;2023-05-24T02:56:35;102523.75;;;10.44;66.10
66524;BME280;53350;52.210;5.160;2023-05-24T02:59:01;102522.78;;;10.38;66.27
66524;BME280;53350;52.210;5.160;2023-05-24T03:01:28;102515.03;;;10.36;66.31
66524;BME280;53350;52.210;5.160;2023-05-24T03:03:54;102526.19;;;10.37;66.50
66524;BME280;53350;52.210;5.160;2023-05-24T03:06:21;102518.47;;;10.37;66.73
66524;BME280;53350;52.210;5.160;2023-05-24T03:08:49;102510.63;;;10.32;66.49
66524;BME280;53350;52.210;5.160;2023-05-24T03:11:15;102521.94;;;10.37;66.68
66524;BME280;53350;52.210;5.160;2023-05-24T03:13:45;102524.53;;;10.39;66.62
66524;BME280;53350;52.210;5.160;2023-05-24T03:16:12;102511.66;;;10.39;66.57
66524;BME280;53350;52.210;5.160;2023-05-24T03:18:38;102520.22;;;10.38;66.70
66524;BME280;53350;52.210;5.160;2023-05-24T03:21:05;102530.50;;;10.36;66.69
66524;BME280;53350;52.210;5.160;2023-05-24T03:23:31;102519.34;;;10.36;66.76
66524;BME280;53350;52.210;5.160;2023-05-24T03:25:59;102509.81;;;10.33;66.57
66524;BME280;53350;52.210;5.160;2023-05-24T03:28:25;102519.25;;;10.33;66.48
66524;BME280;53350;52.210;5.160;2023-05-24T03:30:52;102516.59;;;10.30;66.69
66524;BME280;53350;52.210;5.160;2023-05-24T03:33:19;102517.47;;;10.29;66.76
66524;BME280;53350;52.210;5.160;2023-05-24T03:35:45;102514.91;;;10.29;66.66
66524;BME280;53350;52.210;5.160;2023-05-24T03:38:12;102520.88;;;10.27;66.59
66524;BME280;53350;52.210;5.160;2023-05-24T03:40:38;102518.25;;;10.24;66.64
66524;BME280;53350;52.210;5.160;2023-05-24T03:43:06;102519.91;;;10.22;66.61
66524;BME280;53350;52.210;5.160;2023-05-24T03:45:32;102519.06;;;10.22;66.76
66524;BME280;53350;52.210;5.160;2023-05-24T03:47:59;102524.22;;;10.22;66.77
66524;BME280;53350;52.210;5.160;2023-05-24T03:50:25;102514.78;;;10.22;66.71
66524;BME280;53350;52.210;5.160;2023-05-24T03:52:52;102512.25;;;10.24;66.66
66524;BME280;53350;52.210;5.160;2023-05-24T03:55:18;102500.22;;;10.24;66.40
66524;BME280;53350;52.210;5.160;2023-05-24T03:57:45;102503.66;;;10.25;66.55
66524;BME280;53350;52.210;5.160;2023-05-24T04:00:13;102505.38;;;10.24;66.48
66524;BME280;53350;52.210;5.160;2023-05-24T04:02:40;102508.78;;;10.23;66.63
66524;BME280;53350;52.210;5.160;2023-05-24T04:05:07;102499.38;;;10.24;66.47
66524;BME280;53350;52.210;5.160;2023-05-24T04:07:35;102512.28;;;10.27;66.76
66524;BME280;53350;52.210;5.160;2023-05-24T04:10:01;102503.69;;;10.28;66.79
66524;BME280;53350;52.210;5.160;2023-05-24T04:12:29;102508.94;;;10.31;66.79
66524;BME280;53350;52.210;5.160;2023-05-24T04:14:55;102506.44;;;10.34;66.84
66524;BME280;53350;52.210;5.160;2023-05-24T04:17:23;102506.44;;;10.34;66.76
66524;BME280;53350;52.210;5.160;2023-05-24T04:19:50;102514.94;;;10.32;66.83
66524;BME280;53350;52.210;5.160;2023-05-24T04:22:16;102512.38;;;10.32;66.95
66524;BME280;53350;52.210;5.160;2023-05-24T04:24:43;102508.94;;;10.33;67.27
66524;BME280;53350;52.210;5.160;2023-05-24T04:27:09;102511.59;;;10.36;67.22
66524;BME280;53350;52.210;5.160;2023-05-24T04:29:38;102506.38;;;10.33;67.42
66524;BME280;53350;52.210;5.160;2023-05-24T04:32:04;102515.06;;;10.39;67.56
66524;BME280;53350;52.210;5.160;2023-05-24T04:34:32;102518.56;;;10.41;67.80
66524;BME280;53350;52.210;5.160;2023-05-24T04:37:00;102518.63;;;10.46;67.86
66524;BME280;53350;52.210;5.160;2023-05-24T04:39:26;102510.94;;;10.49;68.07
66524;BME280;53350;52.210;5.160;2023-05-24T04:41:53;102516.16;;;10.54;68.22
66524;BME280;53350;52.210;5.160;2023-05-24T04:44:20;102511.94;;;10.59;68.38
66524;BME280;53350;52.210;5.160;2023-05-24T04:46:47;102512.06;;;10.67;68.71
66524;BME280;53350;52.210;5.160;2023-05-24T04:49:13;102506.16;;;10.75;68.75
66524;BME280;53350;52.210;5.160;2023-05-24T04:51:41;102505.41;;;10.84;68.62
66524;BME280;53350;52.210;5.160;2023-05-24T04:54:07;102508.16;;;10.95;68.99
66524;BME280;53350;52.210;5.160;2023-05-24T04:56:34;102503.19;;;11.12;69.21
66524;BME280;53350;52.210;5.160;2023-05-24T04:59:02;102506.91;;;11.34;69.63
66524;BME280;53350;52.210;5.160;2023-05-24T05:01:29;102515.75;;;11.56;69.48
66524;BME280;53350;52.210;5.160;2023-05-24T05:03:56;102515.97;;;11.79;69.44
66524;BME280;53350;52.210;5.160;2023-05-24T05:06:22;102507.63;;;12.04;69.37
66524;BME280;53350;52.210;5.160;2023-05-24T05:08:51;102506.09;;;12.27;69.17
66524;BME280;53350;52.210;5.160;2023-05-24T05:11:17;102510.56;;;12.50;68.87
66524;BME280;53350;52.210;5.160;2023-05-24T05:13:44;102512.41;;;12.73;68.34
66524;BME280;53350;52.210;5.160;2023-05-24T05:16:11;102515.97;;;12.95;67.98
66524;BME280;53350;52.210;5.160;2023-05-24T05:18:38;102511.75;;;13.17;67.58
66524;BME280;53350;52.210;5.160;2023-05-24T05:21:05;102523.94;;;13.39;66.91
66524;BME280;53350;52.210;5.160;2023-05-24T05:23:32;102519.69;;;13.60;66.99
66524;BME280;53350;52.210;5.160;2023-05-24T05:25:59;102519.72;;;13.80;66.25
66524;BME280;53350;52.210;5.160;2023-05-24T05:28:26;102517.13;;;13.94;66.20
66524;BME280;53350;52.210;5.160;2023-05-24T05:30:52;102516.25;;;14.11;66.09
66524;BME280;53350;52.210;5.160;2023-05-24T05:33:20;102522.31;;;14.30;66.09
66524;BME280;53350;52.210;5.160;2023-05-24T05:35:47;102527.47;;;14.45;65.67
66524;BME280;53350;52.210;5.160;2023-05-24T05:38:14;102525.75;;;14.53;65.31
66524;BME280;53350;52.210;5.160;2023-05-24T05:40:40;102519.69;;;14.65;65.11
66524;BME280;53350;52.210;5.160;2023-05-24T05:43:08;102517.06;;;14.82;64.51
66524;BME280;53350;52.210;5.160;2023-05-24T05:45:34;102517.91;;;14.93;64.48
66524;BME280;53350;52.210;5.160;2023-05-24T05:48:01;102518.72;;;15.05;63.95
66524;BME280;53350;52.210;5.160;2023-05-24T05:50:27;102521.25;;;15.19;63.21
66524;BME280;53350;52.210;5.160;2023-05-24T05:52:53;102517.72;;;15.29;63.03
66524;BME280;53350;52.210;5.160;2023-05-24T05:55:20;102522.91;;;15.37;62.39
66524;BME280;53350;52.210;5.160;2023-05-24T05:57:47;102520.28;;;15.41;61.63
66524;BME280;53350;52.210;5.160;2023-05-24T06:00:15;102526.38;;;15.36;61.41
66524;BME280;53350;52.210;5.160;2023-05-24T06:02:42;102517.72;;;15.30;61.48
66524;BME280;53350;52.210;5.160;2023-05-24T06:05:08;102516.03;;;15.28;61.46
66524;BME280;53350;52.210;5.160;2023-05-24T06:07:35;102518.63;;;15.23;61.53
66524;BME280;53350;52.210;5.160;2023-05-24T06:10:03;102516.06;;;15.19;61.62
66524;BME280;53350;52.210;5.160;2023-05-24T06:12:30;102529.03;;;15.19;61.54
66524;BME280;53350;52.210;5.160;2023-05-24T06:14:56;102520.38;;;15.18;61.40
66524;BME280;53350;52.210;5.160;2023-05-24T06:17:25;102529.03;;;15.16;61.41
66524;BME280;53350;52.210;5.160;2023-05-24T06:19:52;102527.31;;;15.16;61.17
66524;BME280;53350;52.210;5.160;2023-05-24T06:22:19;102529.06;;;15.11;61.31
66524;BME280;53350;52.210;5.160;2023-05-24T06:24:46;102530.78;;;15.18;61.73
66524;BME280;53350;52.210;5.160;2023-05-24T06:27:13;102523.78;;;15.33;61.25
66524;BME280;53350;52.210;5.160;2023-05-24T06:29:40;102530.63;;;15.46;61.00
66524;BME280;53350;52.210;5.160;2023-05-24T06:32:06;102527.97;;;15.54;60.26
66524;BME280;53350;52.210;5.160;2023-05-24T06:34:34;102530.56;;;15.57;60.17
66524;BME280;53350;52.210;5.160;2023-05-24T06:37:00;102546.94;;;15.68;60.18
66524;BME280;53350;52.210;5.160;2023-05-24T06:39:27;102540.84;;;15.78;59.23
66524;BME280;53350;52.210;5.160;2023-05-24T06:41:53;102535.63;;;15.77;58.46
66524;BME280;53350;52.210;5.160;2023-05-24T06:44:20;102535.72;;;15.63;58.31
66524;BME280;53350;52.210;5.160;2023-05-24T06:46:47;102539.22;;;15.57;58.38
66524;BME280;53350;52.210;5.160;2023-05-24T06:49:14;102529.69;;;15.59;58.32
66524;BME280;53350;52.210;5.160;2023-05-24T06:51:41;102540.97;;;15.58;57.41
66524;BME280;53350;52.210;5.160;2023-05-24T06:54:08;102536.63;;;15.57;58.05
66524;BME280;53350;52.210;5.160;2023-05-24T06:56:35;102537.47;;;15.61;57.64
66524;BME280;53350;52.210;5.160;2023-05-24T06:59:01;102528.81;;;15.60;57.56
66524;BME280;53350;52.210;5.160;2023-05-24T07:01:28;102533.16;;;15.57;57.08
66524;BME280;53350;52.210;5.160;2023-05-24T07:03:54;102537.53;;;15.53;56.84
66524;BME280;53350;52.210;5.160;2023-05-24T07:06:21;102539.28;;;15.51;57.01
66524;BME280;53350;52.210;5.160;2023-05-24T07:08:48;102545.38;;;15.38;57.04
66524;BME280;53350;52.210;5.160;2023-05-24T07:11:15;102541.03;;;15.43;57.21
66524;BME280;53350;52.210;5.160;2023-05-24T07:13:41;102541.88;;;15.43;56.64
66524;BME280;53350;52.210;5.160;2023-05-24T07:16:08;102543.66;;;15.40;56.65
66524;BME280;53350;52.210;5.160;2023-05-24T07:18:35;102547.19;;;15.28;56.89
66524;BME280;53350;52.210;5.160;2023-05-24T07:21:02;102550.66;;;15.19;57.19
66524;BME280;53350;52.210;5.160;2023-05-24T07:23:28;102550.66;;;15.16;57.43
66524;BME280;53350;52.210;5.160;2023-05-24T07:25:56;102549.81;;;15.17;57.49
66524;BME280;53350;52.210;5.160;2023-05-24T07:28:23;102549.81;;;15.16;57.91
66524;BME280;53350;52.210;5.160;2023-05-24T07:30:49;102545.47;;;15.25;57.95
66524;BME280;53350;52.210;5.160;2023-05-24T07:33:16;102546.25;;;15.40;57.51
66524;BME280;53350;52.210;5.160;2023-05-24T07:35:42;102541.88;;;15.45;57.29
66524;BME280;53350;52.210;5.160;2023-05-24T07:38:09;102540.97;;;15.55;56.94
66524;BME280;53350;52.210;5.160;2023-05-24T07:40:36;102546.16;;;15.60;56.93
66524;BME280;53350;52.210;5.160;2023-05-24T07:43:04;102549.53;;;15.70;56.88
66524;BME280;53350;52.210;5.160;2023-05-24T07:45:31;102549.50;;;15.82;56.05
66524;BME280;53350;52.210;5.160;2023-05-24T07:47:57;102539.91;;;15.87;55.32
66524;BME280;53350;52.210;5.160;2023-05-24T07:50:25;102546.78;;;15.94;55.52
66524;BME280;53350;52.210;5.160;2023-05-24T07:52:53;102547.63;;;15.99;55.27
66524;BME280;53350;52.210;5.160;2023-05-24T07:55:20;102548.56;;;15.92;54.76
66524;BME280;53350;52.210;5.160;2023-05-24T07:57:46;102546.00;;;15.88;54.79
66524;BME280;53350;52.210;5.160;2023-05-24T08:00:15;102543.38;;;15.91;54.71
66524;BME280;53350;52.210;5.160;2023-05-24T08:02:42;102539.88;;;15.95;54.28
66524;BME280;53350;52.210;5.160;2023-05-24T08:05:11;102545.88;;;16.00;54.81
66524;BME280;53350;52.210;5.160;2023-05-24T08:07:37;102544.97;;;16.06;54.91
66524;BME280;53350;52.210;5.160;2023-05-24T08:10:06;102543.16;;;16.19;54.87
66524;BME280;53350;52.210;5.160;2023-05-24T08:12:32;102539.63;;;16.24;55.02
66524;BME280;53350;52.210;5.160;2023-05-24T08:14:59;102536.94;;;16.38;53.98
66524;BME280;53350;52.210;5.160;2023-05-24T08:17:26;102536.91;;;16.40;53.18
66524;BME280;53350;52.210;5.160;2023-05-24T08:19:54;102542.03;;;16.46;52.73
66524;BME280;53350;52.210;5.160;2023-05-24T08:22:20;102548.09;;;16.48;53.09
66524;BME280;53350;52.210;5.160;2023-05-24T08:24:47;102538.44;;;16.59;52.45
66524;BME280;53350;52.210;5.160;2023-05-24T08:27:13;102545.25;;;16.71;51.53
66524;BME280;53350;52.210;5.160;2023-05-24T08:29:39;102543.38;;;16.82;50.80
66524;BME280;53350;52.210;5.160;2023-05-24T08:32:06;102536.28;;;17.00;50.60
66524;BME280;53350;52.210;5.160;2023-05-24T08:34:35;102534.41;;;17.11;50.26
66524;BME280;53350;52.210;5.160;2023-05-24T08:37:01;102547.44;;;17.11;50.32
66524;BME280;53350;52.210;5.160;2023-05-24T08:39:28;102530.94;;;17.12;49.57
66524;BME280;53350;52.210;5.160;2023-05-24T08:41:56;102534.38;;;17.14;48.84
66524;BME280;53350;52.210;5.160;2023-05-24T08:44:23;102546.53;;;17.14;49.22
66524;BME280;53350;52.210;5.160;2023-05-24T08:46:50;102541.44;;;17.06;48.80
66524;BME280;53350;52.210;5.160;2023-05-24T08:49:18;102540.69;;;16.96;49.39
66524;BME280;53350;52.210;5.160;2023-05-24T08:51:47;102544.94;;;17.03;49.76
66524;BME280;53350;52.210;5.160;2023-05-24T08:54:15;102536.91;;;17.19;49.71
66524;BME280;53350;52.210;5.160;2023-05-24T08:56:42;102538.78;;;17.11;48.73
66524;BME280;53350;52.210;5.160;2023-05-24T08:59:09;102536.91;;;17.19;48.84
66524;BME280;53350;52.210;5.160;2023-05-24T09:01:39;102538.66;;;17.20;48.97
66524;BME280;53350;52.210;5.160;2023-05-24T09:04:06;102535.09;;;17.26;49.25
66524;BME280;53350;52.210;5.160;2023-05-24T09:06:33;102536.66;;;17.37;49.50
66524;BME280;53350;52.210;5.160;2023-05-24T09:09:01;102538.19;;;17.55;48.25
66524;BME280;53350;52.210;5.160;2023-05-24T09:11:28;102536.19;;;17.73;47.68
66524;BME280;53350;52.210;5.160;2023-05-24T09:13:57;102543.78;;;17.87;46.86
66524;BME280;53350;52.210;5.160;2023-05-24T09:16:23;102541.16;;;17.87;46.48
66524;BME280;53350;52.210;5.160;2023-05-24T09:18:50;102534.25;;;17.86;46.04
66524;BME280;53350;52.210;5.160;2023-05-24T09:21:17;102541.25;;;17.81;45.33
66524;BME280;53350;52.210;5.160;2023-05-24T09:23:44;102546.69;;;17.65;45.81
66524;BME280;53350;52.210;5.160;2023-05-24T09:26:12;102553.06;;;17.46;45.78
66524;BME280;53350;52.210;5.160;2023-05-24T09:28:38;102549.63;;;17.45;46.13
66524;BME280;53350;52.210;5.160;2023-05-24T09:31:06;102542.47;;;17.56;46.70
66524;BME280;53350;52.210;5.160;2023-05-24T09:33:33;102534.63;;;17.60;47.06
66524;BME280;53350;52.210;5.160;2023-05-24T09:36:01;102536.19;;;17.73;46.75
66524;BME280;53350;52.210;5.160;2023-05-24T09:38:28;102534.28;;;17.84;46.70
66524;BME280;53350;52.210;5.160;2023-05-24T09:40:59;102531.59;;;17.90;46.56
66524;BME280;53350;52.210;5.160;2023-05-24T09:43:28;102530.47;;;18.05;46.00
66524;BME280;53350;52.210;5.160;2023-05-24T09:45:55;102526.75;;;18.20;45.90
66524;BME280;53350;52.210;5.160;2023-05-24T09:48:24;102519.59;;;18.32;45.71
66524;BME280;53350;52.210;5.160;2023-05-24T09:51:01;102524.72;;;18.36;45.47
66524;BME280;53350;52.210;5.160;2023-05-24T09:53:27;102519.47;;;18.39;45.50
66524;BME280;53350;52.210;5.160;2023-05-24T09:55:54;102514.81;;;18.55;45.28
66524;BME280;53350;52.210;5.160;2023-05-24T09:58:21;102518.13;;;18.64;45.51
66524;BME280;53350;52.210;5.160;2023-05-24T10:00:49;102522.50;;;18.63;45.28
66524;BME280;53350;52.210;5.160;2023-05-24T10:03:15;102529.53;;;18.58;45.48
66524;BME280;53350;52.210;5.160;2023-05-24T10:05:43;102527.00;;;18.55;45.35
66524;BME280;53350;52.210;5.160;2023-05-24T10:08:11;102532.31;;;18.50;45.74
66524;BME280;53350;52.210;5.160;2023-05-24T10:10:38;102533.22;;;18.48;45.89
66524;BME280;53350;52.210;5.160;2023-05-24T10:13:04;102533.22;;;18.48;46.20
66524;BME280;53350;52.210;5.160;2023-05-24T10:15:31;102530.69;;;18.43;46.00
66524;BME280;53350;52.210;5.160;2023-05-24T10:17:59;102533.50;;;18.34;46.06
66524;BME280;53350;52.210;5.160;2023-05-24T10:20:32;102536.81;;;18.40;46.73
66524;BME280;53350;52.210;5.160;2023-05-24T10:23:00;102523.53;;;18.54;46.01
66524;BME280;53350;52.210;5.160;2023-05-24T10:25:32;102517.16;;;18.69;46.23
66524;BME280;53350;52.210;5.160;2023-05-24T10:28:02;102518.84;;;18.72;45.84
66524;BME280;53350;52.210;5.160;2023-05-24T10:30:32;102518.94;;;18.67;45.60
66524;BME280;53350;52.210;5.160;2023-05-24T10:33:03;102517.28;;;18.63;45.60
66524;BME280;53350;52.210;5.160;2023-05-24T10:35:32;102515.66;;;18.57;45.34
66524;BME280;53350;52.210;5.160;2023-05-24T10:38:04;102520.06;;;18.55;45.80
66524;BME280;53350;52.210;5.160;2023-05-24T10:40:31;102523.25;;;18.68;46.43
66524;BME280;53350;52.210;5.160;2023-05-24T10:42:58;102524.03;;;18.73;45.53
66524;BME280;53350;52.210;5.160;2023-05-24T10:45:29;102529.31;;;18.70;45.11
66524;BME280;53350;52.210;5.160;2023-05-24T10:48:06;102522.63;;;18.57;44.99
66524;BME280;53350;52.210;5.160;2023-05-24T10:50:33;102527.72;;;18.63;44.54
66524;BME280;53350;52.210;5.160;2023-05-24T10:53:10;102525.38;;;18.48;44.78
66524;BME280;53350;52.210;5.160;2023-05-24T10:55:50;102522.13;;;18.38;45.19
66524;BME280;53350;52.210;5.160;2023-05-24T10:58:17;102511.72;;;18.33;44.86
66524;BME280;53350;52.210;5.160;2023-05-24T11:00:44;102516.91;;;18.36;45.03
66524;BME280;53350;52.210;5.160;2023-05-24T11:03:14;102515.91;;;18.43;45.41
66524;BME280;53350;52.210;5.160;2023-05-24T11:05:49;102517.69;;;18.41;45.50
66524;BME280;53350;52.210;5.160;2023-05-24T11:08:22;102523.00;;;18.37;44.45
66524;BME280;53350;52.210;5.160;2023-05-24T11:10:48;102523.44;;;18.12;44.66
66524;BME280;53350;52.210;5.160;2023-05-24T11:13:17;102517.34;;;18.10;45.01
66524;BME280;53350;52.210;5.160;2023-05-24T11:15:49;102507.63;;;18.20;44.74
66524;BME280;53350;52.210;5.160;2023-05-24T11:18:21;102518.91;;;18.20;43.95
66524;BME280;53350;52.210;5.160;2023-05-24T11:20:48;102518.28;;;18.07;44.90
66524;BME280;53350;52.210;5.160;2023-05-24T11:23:15;102530.31;;;18.16;45.00
66524;BME280;53350;52.210;5.160;2023-05-24T11:25:42;102514.50;;;18.25;45.34
66524;BME280;53350;52.210;5.160;2023-05-24T11:28:10;102518.56;;;18.40;45.26
66524;BME280;53350;52.210;5.160;2023-05-24T11:30:40;102514.28;;;18.36;45.07
66524;BME280;53350;52.210;5.160;2023-05-24T11:33:13;102514.34;;;18.33;45.28
66524;BME280;53350;52.210;5.160;2023-05-24T11:35:41;102517.72;;;18.40;45.57
66524;BME280;53350;52.210;5.160;2023-05-24T11:38:08;102508.63;;;18.59;45.37
66524;BME280;53350;52.210;5.160;2023-05-24T11:40:36;102511.78;;;18.79;44.61
66524;BME280;53350;52.210;5.160;2023-05-24T11:43:04;102507.41;;;18.79;44.30
66524;BME280;53350;52.210;5.160;2023-05-24T11:45:31;102515.31;;;18.74;44.21
66524;BME280;53350;52.210;5.160;2023-05-24T11:47:57;102516.50;;;18.58;44.32
66524;BME280;53350;52.210;5.160;2023-05-24T11:50:28;102512.69;;;18.31;45.01
66524;BME280;53350;52.210;5.160;2023-05-24T11:53:01;102515.28;;;18.31;45.67
66524;BME280;53350;52.210;5.160;2023-05-24T11:55:28;102515.00;;;18.45;44.97
66524;BME280;53350;52.210;5.160;2023-05-24T11:57:57;102528.31;;;18.31;45.24
66524;BME280;53350;52.210;5.160;2023-05-24T12:00:24;102516.31;;;18.22;45.28
66524;BME280;53350;52.210;5.160;2023-05-24T12:02:51;102515.47;;;18.20;45.76
66524;BME280;53350;52.210;5.160;2023-05-24T12:05:18;102511.25;;;18.11;45.53
66524;BME280;53350;52.210;5.160;2023-05-24T12:07:44;102507.75;;;18.14;45.89
66524;BME280;53350;52.210;5.160;2023-05-24T12:10:14;102507.47;;;18.29;46.10
66524;BME280;53350;52.210;5.160;2023-05-24T12:12:42;102506.50;;;18.35;45.47
66524;BME280;53350;52.210;5.160;2023-05-24T12:15:09;102512.78;;;18.23;45.47
66524;BME280;53350;52.210;5.160;2023-05-24T12:17:36;102497.19;;;18.20;45.57
66524;BME280;53350;52.210;5.160;2023-05-24T12:20:04;102501.59;;;18.18;45.57
66524;BME280;53350;52.210;5.160;2023-05-24T12:22:31;102493.41;;;18.36;45.55
66524;BME280;53350;52.210;5.160;2023-05-24T12:24:57;102486.84;;;18.62;45.29
66524;BME280;53350;52.210;5.160;2023-05-24T12:27:26;102493.72;;;18.66;44.69
66524;BME280;53350;52.210;5.160;2023-05-24T12:29:54;102492.13;;;18.59;44.85
66524;BME280;53350;52.210;5.160;2023-05-24T12:32:21;102487.69;;;18.64;44.69
66524;BME280;53350;52.210;5.160;2023-05-24T12:34:48;102490.25;;;18.67;44.23
66524;BME280;53350;52.210;5.160;2023-05-24T12:37:16;102496.50;;;18.58;43.23
66524;BME280;53350;52.210;5.160;2023-05-24T12:39:42;102493.19;;;18.49;43.15
66524;BME280;53350;52.210;5.160;2023-05-24T12:42:09;102495.88;;;18.46;42.30
66524;BME280;53350;52.210;5.160;2023-05-24T12:44:38;102499.41;;;18.41;43.10
66524;BME280;53350;52.210;5.160;2023-05-24T12:47:06;102501.28;;;18.35;43.41
66524;BME280;53350;52.210;5.160;2023-05-24T12:49:32;102507.63;;;18.20;42.93
66524;BME280;53350;52.210;5.160;2023-05-24T12:51:59;102512.34;;;17.99;43.29